»·PEaware :: N921VN KAVQ-KBXK

N921VN :: KAVQ-KBXK

FLIGHT INFORMATION

Flight Status: Arrived
Operator: Privately registered:
United States
More flights under this callsign
Pilot: Kevin M. (7)
Aircraft: Diamond DA-62
(DA62)
More flights by this aircraft type
Origin: KAVQ Marana Northwest Regl
United States
Destination: KBXK Buckeye Mun
United States
More flights between these airports :: More routes between these airports
Route:
File this flight plan on PilotEdge
Remarks:
Altitude:
(Current/Filed)
6,500ft
Speed:
(Current/Filed)
140kts
Departed: 27-Sep-20 12:50 PM
Arrived: 27-Sep-20 01:32 PM
Distance/Time
Traveled:
96nm/0:42
Distance/Time
To Go:
Arrived

Flight Plot

Page will automatically refresh every two minutes.

Flight plan parsing failed; only flown route is shown


Map Options




Map Legend


Flown Route
Filed Route
Departure Airport
Arrival Airport
Navaid (VOR, NDB)
Fix

Horizontal Profiles

Position Reports

Time Latitude Longitude Heading Altitude Ground
Speed
27-Sep-20 12:44 32.408172 -111.212633 140 2029ft 0kts
27-Sep-20 12:45 32.408172 -111.212633 140 2029ft 0kts
27-Sep-20 12:46 32.407992 -111.212689 224 2029ft 4kts
27-Sep-20 12:47 32.404782 -111.209923 223 2034ft 0kts
27-Sep-20 12:48 32.404782 -111.209923 223 2034ft 0kts
27-Sep-20 12:49 32.406259 -111.213059 315 2029ft 59kts
27-Sep-20 12:50 32.429247 -111.236551 339 2766ft 128kts
27-Sep-20 12:51 32.465365 -111.251579 329 3679ft 145kts
27-Sep-20 12:52 32.504018 -111.273723 335 4114ft 168kts
27-Sep-20 12:53 32.545774 -111.297400 332 4553ft 165kts
27-Sep-20 12:54 32.584729 -111.328338 322 4779ft 170kts
27-Sep-20 12:55 32.619201 -111.366060 295 5006ft 170kts
27-Sep-20 12:56 32.635316 -111.418502 289 5230ft 168kts
27-Sep-20 12:57 32.650402 -111.470989 289 5472ft 168kts
27-Sep-20 12:58 32.665493 -111.523415 289 5701ft 167kts
27-Sep-20 12:59 32.680555 -111.575512 289 5929ft 166kts
27-Sep-20 13:00 32.695525 -111.627153 289 6158ft 164kts
27-Sep-20 13:01 32.710569 -111.678620 289 6393ft 164kts
27-Sep-20 13:02 32.746363 -111.699058 8 6549ft 173kts
27-Sep-20 13:03 32.793893 -111.685999 10 6551ft 176kts
27-Sep-20 13:04 32.828852 -111.682540 359 6552ft 175kts
27-Sep-20 13:05 32.875257 -111.690606 323 6550ft 171kts
27-Sep-20 13:06 32.914787 -111.722185 321 6548ft 171kts
27-Sep-20 13:07 32.951724 -111.758165 319 6546ft 171kts
27-Sep-20 13:08 32.974749 -111.790530 300 6543ft 171kts
27-Sep-20 13:09 32.998180 -111.839868 299 6539ft 171kts
27-Sep-20 13:10 33.021988 -111.889360 299 6540ft 172kts
27-Sep-20 13:11 33.041697 -111.929885 299 6537ft 173kts
27-Sep-20 13:12 33.061022 -111.969219 299 6537ft 173kts
27-Sep-20 13:13 33.085511 -112.018843 300 6533ft 173kts
27-Sep-20 13:14 33.110106 -112.068357 300 6531ft 173kts
27-Sep-20 13:15 33.134589 -112.118208 294 6528ft 174kts
27-Sep-20 13:16 33.148588 -112.173480 284 6531ft 174kts
27-Sep-20 13:17 33.161630 -112.229608 285 6523ft 175kts
27-Sep-20 13:18 33.175128 -112.285500 285 6523ft 175kts
27-Sep-20 13:19 33.188993 -112.341334 286 6522ft 175kts
27-Sep-20 13:20 33.203105 -112.397101 286 6573ft 175kts
27-Sep-20 13:21 33.236195 -112.440479 317 6474ft 181kts
27-Sep-20 13:22 33.274563 -112.481062 316 6108ft 185kts
27-Sep-20 13:23 33.308985 -112.518332 318 4756ft 201kts
27-Sep-20 13:24 33.354440 -112.554375 326 3558ft 195kts
27-Sep-20 13:25 33.376429 -112.606468 293 2545ft 149kts
27-Sep-20 13:26 33.404641 -112.645196 307 2456ft 155kts
27-Sep-20 13:27 33.423987 -112.691912 290 2791ft 159kts
27-Sep-20 13:28 33.456924 -112.720177 10 2726ft 163kts
27-Sep-20 13:29 33.454705 -112.686732 146 2049ft 117kts
27-Sep-20 13:30 33.426837 -112.686066 179 1030ft 82kts
27-Sep-20 13:31 33.424114 -112.685166 34 1021ft 0kts
27-Sep-20 13:32 0.000408 0.013975 0 3ft 0kts
27-Sep-20 13:33 0.000408 0.013975 0 3ft 0kts
27-Sep-20 13:34 33.422111 -112.684022 275 1014ft 0kts
27-Sep-20 13:36 33.422111 -112.684022 275 1016ft 0kts
27-Sep-20 13:37 33.422111 -112.684022 275 1016ft 0kts
27-Sep-20 13:38 33.422111 -112.684022 275 1016ft 0kts
27-Sep-20 13:39 33.422111 -112.684022 275 1016ft 0kts
27-Sep-20 13:40 33.422111 -112.684022 275 1016ft 0kts
27-Sep-20 13:41 33.422111 -112.684022 275 1016ft 0kts
27-Sep-20 13:42 33.422111 -112.684022 275 1016ft 0kts
27-Sep-20 13:43 33.422111 -112.684022 275 1016ft 0kts
27-Sep-20 13:44 33.422111 -112.684022 275 1016ft 0kts
27-Sep-20 13:45 33.422111 -112.684022 275 1016ft 0kts
27-Sep-20 13:46 33.422111 -112.684022 275 1016ft 0kts

Navigation Log

Ident Type
Flight plan parsing failed, navigation log unavailable